sensor_id;sensor_type;location;lat;lon;timestamp;pressure;altitude;pressure_sealevel;temperature;humidity
55468;BME280;41332;42.702;23.200;2022-11-25T00:01:38;93763.41;;;4.69;69.46
55468;BME280;41332;42.702;23.200;2022-11-25T00:04:04;93775.56;;;4.59;69.52
55468;BME280;41332;42.702;23.200;2022-11-25T00:06:34;93773.03;;;4.68;69.91
55468;BME280;41332;42.702;23.200;2022-11-25T00:09:04;93779.28;;;4.67;69.69
55468;BME280;41332;42.702;23.200;2022-11-25T00:11:30;93779.69;;;4.74;69.77
55468;BME280;41332;42.702;23.200;2022-11-25T00:13:56;93785.28;;;4.82;68.77
55468;BME280;41332;42.702;23.200;2022-11-25T00:16:23;93787.03;;;4.58;69.45
55468;BME280;41332;42.702;23.200;2022-11-25T00:18:50;93790.28;;;4.64;69.67
55468;BME280;41332;42.702;23.200;2022-11-25T00:21:19;93786.06;;;4.54;69.25
55468;BME280;41332;42.702;23.200;2022-11-25T00:23:49;93778.25;;;4.40;69.89
55468;BME280;41332;42.702;23.200;2022-11-25T00:26:15;93778.81;;;4.37;70.94
55468;BME280;41332;42.702;23.200;2022-11-25T00:28:43;93789.72;;;4.53;70.74
55468;BME280;41332;42.702;23.200;2022-11-25T00:31:22;93787.13;;;4.53;70.30
55468;BME280;41332;42.702;23.200;2022-11-25T00:33:49;93792.53;;;4.57;70.51
55468;BME280;41332;42.702;23.200;2022-11-25T00:36:18;93787.03;;;4.58;70.46
55468;BME280;41332;42.702;23.200;2022-11-25T00:38:44;93792.91;;;4.64;70.64
55468;BME280;41332;42.702;23.200;2022-11-25T00:41:10;93791.44;;;4.58;70.40
55468;BME280;41332;42.702;23.200;2022-11-25T00:43:54;93797.72;;;4.57;70.54
55468;BME280;41332;42.702;23.200;2022-11-25T00:46:38;93789.31;;;4.46;70.45
55468;BME280;41332;42.702;23.200;2022-11-25T00:49:03;93789.22;;;4.51;70.75
55468;BME280;41332;42.702;23.200;2022-11-25T00:51:29;93792.91;;;4.36;70.91
55468;BME280;41332;42.702;23.200;2022-11-25T00:53:54;93789.91;;;4.43;70.50
55468;BME280;41332;42.702;23.200;2022-11-25T00:56:19;93787.31;;;4.43;70.68
55468;BME280;41332;42.702;23.200;2022-11-25T00:58:47;93789.94;;;4.57;70.62
55468;BME280;41332;42.702;23.200;2022-11-25T01:01:13;93792.00;;;4.41;71.37
55468;BME280;41332;42.702;23.200;2022-11-25T01:03:39;93789.81;;;4.48;70.77
55468;BME280;41332;42.702;23.200;2022-11-25T01:06:08;93788.09;;;4.57;70.92
55468;BME280;41332;42.702;23.200;2022-11-25T01:08:34;93794.44;;;4.65;70.19
55468;BME280;41332;42.702;23.200;2022-11-25T01:11:02;93788.56;;;4.73;70.57
55468;BME280;41332;42.702;23.200;2022-11-25T01:13:28;93785.09;;;4.64;70.72
55468;BME280;41332;42.702;23.200;2022-11-25T01:15:53;93783.53;;;4.63;70.78
55468;BME280;41332;42.702;23.200;2022-11-25T01:18:18;93782.97;;;4.66;70.08
55468;BME280;41332;42.702;23.200;2022-11-25T01:20:44;93792.00;;;4.83;70.31
55468;BME280;41332;42.702;23.200;2022-11-25T01:23:09;93780.19;;;4.76;70.06
55468;BME280;41332;42.702;23.200;2022-11-25T01:25:38;93784.69;;;4.85;70.13
55468;BME280;41332;42.702;23.200;2022-11-25T01:28:04;93786.81;;;4.83;69.91
55468;BME280;41332;42.702;23.200;2022-11-25T01:30:30;93774.50;;;4.74;68.96
55468;BME280;41332;42.702;23.200;2022-11-25T01:32:55;93780.19;;;4.76;68.79
55468;BME280;41332;42.702;23.200;2022-11-25T01:35:21;93780.44;;;4.75;69.58
55468;BME280;41332;42.702;23.200;2022-11-25T01:37:46;93771.50;;;4.81;68.88
55468;BME280;41332;42.702;23.200;2022-11-25T01:40:12;93762.72;;;4.77;69.48
55468;BME280;41332;42.702;23.200;2022-11-25T01:42:42;93775.53;;;4.73;68.70
55468;BME280;41332;42.702;23.200;2022-11-25T01:48:02;93758.38;;;4.86;68.45
55468;BME280;41332;42.702;23.200;2022-11-25T01:50:30;93763.59;;;4.72;68.74
55468;BME280;41332;42.702;23.200;2022-11-25T01:52:56;93754.72;;;4.73;68.72
55468;BME280;41332;42.702;23.200;2022-11-25T01:55:23;93753.28;;;4.67;68.88
55468;BME280;41332;42.702;23.200;2022-11-25T01:57:53;93756.38;;;4.69;69.02
55468;BME280;41332;42.702;23.200;2022-11-25T02:00:21;93761.19;;;4.76;68.63
55468;BME280;41332;42.702;23.200;2022-11-25T02:02:48;93757.81;;;4.75;68.21
55468;BME280;41332;42.702;23.200;2022-11-25T02:05:18;93760.03;;;4.68;68.22
55468;BME280;41332;42.702;23.200;2022-11-25T02:07:46;93764.88;;;4.61;68.27
55468;BME280;41332;42.702;23.200;2022-11-25T02:10:20;93768.63;;;4.55;68.61
55468;BME280;41332;42.702;23.200;2022-11-25T02:12:46;93767.38;;;4.52;69.11
55468;BME280;41332;42.702;23.200;2022-11-25T02:15:13;93775.16;;;4.52;68.68
55468;BME280;41332;42.702;23.200;2022-11-25T02:17:41;93777.97;;;4.56;68.33
55468;BME280;41332;42.702;23.200;2022-11-25T02:20:12;93777.78;;;4.52;68.39
55468;BME280;41332;42.702;23.200;2022-11-25T02:25:30;93784.03;;;4.51;68.11
55468;BME280;41332;42.702;23.200;2022-11-25T02:28:02;93781.44;;;4.51;68.40
55468;BME280;41332;42.702;23.200;2022-11-25T02:30:28;93775.94;;;4.53;68.31
55468;BME280;41332;42.702;23.200;2022-11-25T02:32:54;93781.69;;;4.36;68.60
55468;BME280;41332;42.702;23.200;2022-11-25T02:37:45;93780.66;;;4.37;68.33
55468;BME280;41332;42.702;23.200;2022-11-25T02:40:12;93784.09;;;4.32;68.34
55468;BME280;41332;42.702;23.200;2022-11-25T02:42:38;93783.84;;;4.34;68.24
55468;BME280;41332;42.702;23.200;2022-11-25T02:45:09;93778.91;;;4.18;68.83
55468;BME280;41332;42.702;23.200;2022-11-25T02:47:36;93769.09;;;4.29;68.55
55468;BME280;41332;42.702;23.200;2022-11-25T02:50:02;93779.91;;;4.36;68.76
55468;BME280;41332;42.702;23.200;2022-11-25T02:52:27;93783.16;;;4.42;68.54
55468;BME280;41332;42.702;23.200;2022-11-25T02:54:53;93780.47;;;4.47;68.62
55468;BME280;41332;42.702;23.200;2022-11-25T02:57:18;93778.94;;;4.60;68.34
55468;BME280;41332;42.702;23.200;2022-11-25T02:59:43;93798.28;;;4.68;68.45
55468;BME280;41332;42.702;23.200;2022-11-25T03:02:09;93796.09;;;4.61;68.41
55468;BME280;41332;42.702;23.200;2022-11-25T03:04:36;93796.00;;;4.66;68.01
55468;BME280;41332;42.702;23.200;2022-11-25T03:07:01;93799.75;;;4.60;68.73
55468;BME280;41332;42.702;23.200;2022-11-25T03:09:27;93791.06;;;4.65;68.78
55468;BME280;41332;42.702;23.200;2022-11-25T03:11:53;93805.06;;;4.69;68.42
55468;BME280;41332;42.702;23.200;2022-11-25T03:14:50;93798.84;;;4.65;69.19
55468;BME280;41332;42.702;23.200;2022-11-25T03:17:16;93795.31;;;4.60;68.86
55468;BME280;41332;42.702;23.200;2022-11-25T03:19:41;93805.22;;;4.44;69.78
55468;BME280;41332;42.702;23.200;2022-11-25T03:22:06;93806.19;;;4.62;69.85
55468;BME280;41332;42.702;23.200;2022-11-25T03:24:32;93804.75;;;4.56;70.54
55468;BME280;41332;42.702;23.200;2022-11-25T03:26:58;93817.94;;;4.60;70.06
55468;BME280;41332;42.702;23.200;2022-11-25T03:29:23;93813.13;;;4.53;70.96
55468;BME280;41332;42.702;23.200;2022-11-25T03:31:49;93814.19;;;4.66;70.79
55468;BME280;41332;42.702;23.200;2022-11-25T03:34:14;93822.00;;;4.66;70.65
55468;BME280;41332;42.702;23.200;2022-11-25T03:36:39;93825.16;;;4.63;70.97
55468;BME280;41332;42.702;23.200;2022-11-25T03:39:05;93821.59;;;4.59;71.17
55468;BME280;41332;42.702;23.200;2022-11-25T03:41:30;93829.13;;;4.47;71.70
55468;BME280;41332;42.702;23.200;2022-11-25T03:43:56;93832.94;;;4.35;72.16
55468;BME280;41332;42.702;23.200;2022-11-25T03:46:21;93822.44;;;4.26;72.20
55468;BME280;41332;42.702;23.200;2022-11-25T03:48:46;93831.00;;;4.27;72.16
55468;BME280;41332;42.702;23.200;2022-11-25T03:51:12;93827.53;;;4.32;72.30
55468;BME280;41332;42.702;23.200;2022-11-25T03:53:37;93832.84;;;4.26;72.40
55468;BME280;41332;42.702;23.200;2022-11-25T03:56:03;93832.94;;;4.35;72.67
55468;BME280;41332;42.702;23.200;2022-11-25T03:58:28;93841.03;;;4.34;71.94
55468;BME280;41332;42.702;23.200;2022-11-25T04:00:53;93836.28;;;4.22;72.03
55468;BME280;41332;42.702;23.200;2022-11-25T04:03:19;93842.81;;;4.19;72.20
55468;BME280;41332;42.702;23.200;2022-11-25T04:05:44;93858.06;;;4.26;72.14
55468;BME280;41332;42.702;23.200;2022-11-25T04:08:10;93848.81;;;4.20;72.32
55468;BME280;41332;42.702;23.200;2022-11-25T04:10:35;93845.25;;;4.16;72.58
55468;BME280;41332;42.702;23.200;2022-11-25T04:13:00;93853.19;;;4.05;72.97
55468;BME280;41332;42.702;23.200;2022-11-25T04:15:26;93856.72;;;3.95;72.94
55468;BME280;41332;42.702;23.200;2022-11-25T04:17:51;93857.00;;;3.94;73.72
55468;BME280;41332;42.702;23.200;2022-11-25T04:20:17;93856.84;;;4.04;72.88
55468;BME280;41332;42.702;23.200;2022-11-25T04:22:42;93863.78;;;4.09;72.79
55468;BME280;41332;42.702;23.200;2022-11-25T04:25:08;93862.34;;;4.03;72.65
55468;BME280;41332;42.702;23.200;2022-11-25T04:27:34;93858.63;;;3.90;72.67
55468;BME280;41332;42.702;23.200;2022-11-25T04:29:59;93874.69;;;3.92;73.38
55468;BME280;41332;42.702;23.200;2022-11-25T04:32:25;93873.00;;;4.01;73.43
55468;BME280;41332;42.702;23.200;2022-11-25T04:34:50;93873.41;;;4.08;72.60
55468;BME280;41332;42.702;23.200;2022-11-25T04:37:16;93886.34;;;4.13;72.11
55468;BME280;41332;42.702;23.200;2022-11-25T04:39:41;93878.00;;;3.98;72.59
55468;BME280;41332;42.702;23.200;2022-11-25T04:42:06;93891.34;;;3.91;72.53
55468;BME280;41332;42.702;23.200;2022-11-25T04:44:50;93887.63;;;3.59;73.63
55468;BME280;41332;42.702;23.200;2022-11-25T04:47:16;93892.47;;;3.85;73.01
55468;BME280;41332;42.702;23.200;2022-11-25T04:49:41;93891.91;;;3.88;72.75
55468;BME280;41332;42.702;23.200;2022-11-25T04:52:06;93890.50;;;3.76;72.90
55468;BME280;41332;42.702;23.200;2022-11-25T04:54:32;93893.25;;;3.85;72.85
55468;BME280;41332;42.702;23.200;2022-11-25T04:56:58;93899.56;;;3.79;73.34
55468;BME280;41332;42.702;23.200;2022-11-25T04:59:23;93907.28;;;3.84;72.87
55468;BME280;41332;42.702;23.200;2022-11-25T05:02:26;93912.00;;;3.82;72.72
55468;BME280;41332;42.702;23.200;2022-11-25T05:04:52;93916.09;;;3.88;72.80
55468;BME280;41332;42.702;23.200;2022-11-25T05:07:19;93922.69;;;3.81;72.97
55468;BME280;41332;42.702;23.200;2022-11-25T05:09:45;93930.66;;;3.84;73.15
55468;BME280;41332;42.702;23.200;2022-11-25T05:12:14;93930.34;;;3.91;72.28
55468;BME280;41332;42.702;23.200;2022-11-25T05:14:40;93933.00;;;3.86;72.98
55468;BME280;41332;42.702;23.200;2022-11-25T05:17:06;93926.03;;;3.81;72.30
55468;BME280;41332;42.702;23.200;2022-11-25T05:19:32;93925.91;;;3.91;71.76
55468;BME280;41332;42.702;23.200;2022-11-25T05:22:00;93947.44;;;3.92;71.75
55468;BME280;41332;42.702;23.200;2022-11-25T05:24:26;93951.81;;;3.96;71.85
55468;BME280;41332;42.702;23.200;2022-11-25T05:26:51;93956.66;;;3.84;71.78
55468;BME280;41332;42.702;23.200;2022-11-25T05:29:17;93955.31;;;3.87;71.75
55468;BME280;41332;42.702;23.200;2022-11-25T05:31:42;93960.31;;;3.83;72.28
55468;BME280;41332;42.702;23.200;2022-11-25T05:34:08;93962.72;;;3.79;71.92
55468;BME280;41332;42.702;23.200;2022-11-25T05:36:33;93981.25;;;3.92;71.13
55468;BME280;41332;42.702;23.200;2022-11-25T05:38:59;93970.59;;;3.93;71.27
55468;BME280;41332;42.702;23.200;2022-11-25T05:41:25;93988.28;;;3.91;71.58
55468;BME280;41332;42.702;23.200;2022-11-25T05:43:50;93986.53;;;4.06;71.04
55468;BME280;41332;42.702;23.200;2022-11-25T05:46:16;93987.03;;;4.08;71.36
55468;BME280;41332;42.702;23.200;2022-11-25T05:48:42;93986.16;;;4.12;70.65
55468;BME280;41332;42.702;23.200;2022-11-25T05:51:07;93989.41;;;4.23;70.69
55468;BME280;41332;42.702;23.200;2022-11-25T05:53:34;93999.41;;;4.68;70.07
55468;BME280;41332;42.702;23.200;2022-11-25T05:56:02;94001.75;;;5.17;68.64
55468;BME280;41332;42.702;23.200;2022-11-25T05:58:29;93996.84;;;5.15;67.59
55468;BME280;41332;42.702;23.200;2022-11-25T06:00:55;94002.72;;;5.63;66.08
55468;BME280;41332;42.702;23.200;2022-11-25T06:03:24;94003.56;;;6.14;64.52
55468;BME280;41332;42.702;23.200;2022-11-25T06:05:51;94013.00;;;6.23;63.72
55468;BME280;41332;42.702;23.200;2022-11-25T06:08:16;94011.72;;;5.98;63.63
55468;BME280;41332;42.702;23.200;2022-11-25T06:10:42;94011.31;;;5.77;63.66
55468;BME280;41332;42.702;23.200;2022-11-25T06:13:08;94023.56;;;5.76;64.09
55468;BME280;41332;42.702;23.200;2022-11-25T06:15:34;94033.88;;;5.54;64.54
55468;BME280;41332;42.702;23.200;2022-11-25T06:18:04;94027.78;;;5.31;65.11
55468;BME280;41332;42.702;23.200;2022-11-25T06:20:29;94038.00;;;5.13;65.95
55468;BME280;41332;42.702;23.200;2022-11-25T06:22:56;94028.69;;;4.93;66.93
55468;BME280;41332;42.702;23.200;2022-11-25T06:25:22;94032.34;;;4.92;66.40
55468;BME280;41332;42.702;23.200;2022-11-25T06:27:48;94036.56;;;4.88;66.39
55468;BME280;41332;42.702;23.200;2022-11-25T06:30:13;94031.84;;;4.90;66.53
55468;BME280;41332;42.702;23.200;2022-11-25T06:32:39;94030.81;;;4.91;66.91
55468;BME280;41332;42.702;23.200;2022-11-25T06:35:05;94043.19;;;4.80;67.16
55468;BME280;41332;42.702;23.200;2022-11-25T06:37:32;94045.25;;;4.64;67.62
55468;BME280;41332;42.702;23.200;2022-11-25T06:39:57;94050.19;;;4.66;67.84
55468;BME280;41332;42.702;23.200;2022-11-25T06:42:22;94050.00;;;4.62;68.30
55468;BME280;41332;42.702;23.200;2022-11-25T06:44:48;94050.53;;;4.59;67.83
55468;BME280;41332;42.702;23.200;2022-11-25T06:47:13;94061.66;;;4.98;67.90
55468;BME280;41332;42.702;23.200;2022-11-25T06:49:38;94056.56;;;5.25;65.75
55468;BME280;41332;42.702;23.200;2022-11-25T06:52:04;94069.84;;;5.24;65.83
55468;BME280;41332;42.702;23.200;2022-11-25T06:54:29;94061.88;;;5.01;66.84
55468;BME280;41332;42.702;23.200;2022-11-25T06:56:55;94064.69;;;5.05;66.09
55468;BME280;41332;42.702;23.200;2022-11-25T06:59:20;94067.00;;;5.06;65.95
55468;BME280;41332;42.702;23.200;2022-11-25T07:01:46;94074.94;;;5.15;66.40
55468;BME280;41332;42.702;23.200;2022-11-25T07:04:11;94077.56;;;5.15;65.66
55468;BME280;41332;42.702;23.200;2022-11-25T07:06:37;94071.50;;;5.01;66.12
55468;BME280;41332;42.702;23.200;2022-11-25T07:09:03;94081.06;;;5.05;66.40
55468;BME280;41332;42.702;23.200;2022-11-25T07:11:31;94068.72;;;4.97;65.57
55468;BME280;41332;42.702;23.200;2022-11-25T07:14:04;94073.44;;;4.95;66.37
55468;BME280;41332;42.702;23.200;2022-11-25T07:16:31;94081.75;;;5.11;65.63
55468;BME280;41332;42.702;23.200;2022-11-25T07:19:00;94091.75;;;5.23;65.41
55468;BME280;41332;42.702;23.200;2022-11-25T07:21:27;94085.66;;;5.27;65.12
55468;BME280;41332;42.702;23.200;2022-11-25T07:23:54;94087.34;;;5.37;65.23
55468;BME280;41332;42.702;23.200;2022-11-25T07:26:22;94090.44;;;5.53;64.10
55468;BME280;41332;42.702;23.200;2022-11-25T07:28:49;94087.56;;;5.97;63.81
55468;BME280;41332;42.702;23.200;2022-11-25T07:31:28;94083.44;;;8.31;57.05
55468;BME280;41332;42.702;23.200;2022-11-25T07:34:00;94089.97;;;10.16;53.13
55468;BME280;41332;42.702;23.200;2022-11-25T07:36:26;94079.97;;;11.70;48.75
55468;BME280;41332;42.702;23.200;2022-11-25T07:38:55;94081.25;;;12.75;44.09
55468;BME280;41332;42.702;23.200;2022-11-25T07:41:23;94083.13;;;13.44;42.97
55468;BME280;41332;42.702;23.200;2022-11-25T07:43:49;94085.72;;;14.72;39.89
55468;BME280;41332;42.702;23.200;2022-11-25T07:48:42;94083.84;;;16.20;35.56
55468;BME280;41332;42.702;23.200;2022-11-25T07:51:33;94083.81;;;16.97;34.95
55468;BME280;41332;42.702;23.200;2022-11-25T07:54:00;94087.09;;;17.21;33.70
55468;BME280;41332;42.702;23.200;2022-11-25T07:56:27;94084.81;;;17.57;32.86
55468;BME280;41332;42.702;23.200;2022-11-25T07:58:56;94081.09;;;17.61;32.36
55468;BME280;41332;42.702;23.200;2022-11-25T08:01:22;94086.47;;;17.69;32.52
55468;BME280;41332;42.702;23.200;2022-11-25T08:03:49;94090.97;;;16.96;32.37
55468;BME280;41332;42.702;23.200;2022-11-25T08:06:17;94092.47;;;17.62;32.02
55468;BME280;41332;42.702;23.200;2022-11-25T08:08:44;94096.03;;;17.80;30.88
55468;BME280;41332;42.702;23.200;2022-11-25T08:11:21;94107.66;;;18.03;30.67
55468;BME280;41332;42.702;23.200;2022-11-25T08:13:47;94101.56;;;18.51;30.10
55468;BME280;41332;42.702;23.200;2022-11-25T08:16:14;94101.94;;;19.12;30.09
55468;BME280;41332;42.702;23.200;2022-11-25T08:18:40;94110.09;;;19.73;29.01
55468;BME280;41332;42.702;23.200;2022-11-25T08:21:08;94106.63;;;19.44;27.88
55468;BME280;41332;42.702;23.200;2022-11-25T08:23:34;94114.09;;;19.09;28.20
55468;BME280;41332;42.702;23.200;2022-11-25T08:26:08;94117.94;;;18.56;29.74
55468;BME280;41332;42.702;23.200;2022-11-25T08:28:34;94118.47;;;17.83;30.51
55468;BME280;41332;42.702;23.200;2022-11-25T08:31:01;94115.78;;;16.27;33.51
55468;BME280;41332;42.702;23.200;2022-11-25T08:33:26;94120.41;;;15.45;34.42
55468;BME280;41332;42.702;23.200;2022-11-25T08:35:53;94125.75;;;14.38;36.21
55468;BME280;41332;42.702;23.200;2022-11-25T08:38:18;94124.13;;;13.41;38.11
55468;BME280;41332;42.702;23.200;2022-11-25T08:40:44;94123.34;;;12.47;40.50
55468;BME280;41332;42.702;23.200;2022-11-25T08:43:10;94130.31;;;11.81;41.03
55468;BME280;41332;42.702;23.200;2022-11-25T08:45:37;94127.69;;;11.47;42.11
55468;BME280;41332;42.702;23.200;2022-11-25T08:48:04;94120.25;;;11.16;43.65
55468;BME280;41332;42.702;23.200;2022-11-25T08:50:29;94119.75;;;11.01;44.26
55468;BME280;41332;42.702;23.200;2022-11-25T08:52:55;94124.28;;;10.92;44.70
55468;BME280;41332;42.702;23.200;2022-11-25T08:55:21;94123.63;;;10.74;45.18
55468;BME280;41332;42.702;23.200;2022-11-25T08:57:50;94122.13;;;10.43;46.50
55468;BME280;41332;42.702;23.200;2022-11-25T09:00:16;94127.50;;;10.08;47.11
55468;BME280;41332;42.702;23.200;2022-11-25T09:02:41;94127.91;;;9.89;48.62
55468;BME280;41332;42.702;23.200;2022-11-25T09:05:07;94124.19;;;9.90;48.54
55468;BME280;41332;42.702;23.200;2022-11-25T09:07:33;94127.91;;;9.89;48.97
55468;BME280;41332;42.702;23.200;2022-11-25T09:09:58;94133.63;;;9.82;48.88
55468;BME280;41332;42.702;23.200;2022-11-25T09:12:23;94140.16;;;9.50;48.61
55468;BME280;41332;42.702;23.200;2022-11-25T09:14:49;94139.72;;;9.39;50.07
55468;BME280;41332;42.702;23.200;2022-11-25T09:17:14;94141.22;;;9.57;49.76
55468;BME280;41332;42.702;23.200;2022-11-25T09:19:40;94142.63;;;9.55;50.17
55468;BME280;41332;42.702;23.200;2022-11-25T09:22:06;94136.88;;;9.70;50.67
55468;BME280;41332;42.702;23.200;2022-11-25T09:24:33;94132.41;;;9.80;50.19
55468;BME280;41332;42.702;23.200;2022-11-25T09:26:59;94138.13;;;9.73;49.55
55468;BME280;41332;42.702;23.200;2022-11-25T09:29:24;94138.78;;;9.52;49.25
55468;BME280;41332;42.702;23.200;2022-11-25T09:31:50;94141.13;;;9.45;49.06
55468;BME280;41332;42.702;23.200;2022-11-25T09:34:15;94138.06;;;9.26;50.34
55468;BME280;41332;42.702;23.200;2022-11-25T09:36:43;94131.25;;;9.16;50.64
55468;BME280;41332;42.702;23.200;2022-11-25T09:39:08;94127.41;;;9.04;50.19
55468;BME280;41332;42.702;23.200;2022-11-25T09:42:00;94130.63;;;8.84;50.71
55468;BME280;41332;42.702;23.200;2022-11-25T09:45:05;94138.94;;;8.68;51.22
55468;BME280;41332;42.702;23.200;2022-11-25T09:53:44;94131.41;;;9.02;50.35
55468;BME280;41332;42.702;23.200;2022-11-25T09:56:26;94139.28;;;8.93;51.20
55468;BME280;41332;42.702;23.200;2022-11-25T09:59:01;94123.72;;;8.97;51.35
55468;BME280;41332;42.702;23.200;2022-11-25T10:01:30;94129.88;;;8.92;51.09
55468;BME280;41332;42.702;23.200;2022-11-25T10:04:03;94125.56;;;8.96;51.63
55468;BME280;41332;42.702;23.200;2022-11-25T10:06:34;94137.91;;;9.13;51.34
55468;BME280;41332;42.702;23.200;2022-11-25T10:09:05;94129.13;;;9.18;50.75
55468;BME280;41332;42.702;23.200;2022-11-25T10:11:57;94125.09;;;9.20;51.20
55468;BME280;41332;42.702;23.200;2022-11-25T10:14:47;94130.03;;;9.04;50.82
55468;BME280;41332;42.702;23.200;2022-11-25T10:22:33;94136.66;;;9.11;50.14
55468;BME280;41332;42.702;23.200;2022-11-25T10:25:23;94136.34;;;8.86;51.55
55468;BME280;41332;42.702;23.200;2022-11-25T10:33:02;94136.50;;;8.89;50.57
55468;BME280;41332;42.702;23.200;2022-11-25T10:35:33;94130.50;;;8.71;50.59
55468;BME280;41332;42.702;23.200;2022-11-25T10:38:02;94138.63;;;8.61;50.97
55468;BME280;41332;42.702;23.200;2022-11-25T10:40:30;94119.84;;;8.68;50.89
55468;BME280;41332;42.702;23.200;2022-11-25T10:42:55;94137.53;;;8.53;51.24
55468;BME280;41332;42.702;23.200;2022-11-25T10:45:29;94121.03;;;8.44;50.84
55468;BME280;41332;42.702;23.200;2022-11-25T10:48:06;94135.91;;;8.26;51.57
55468;BME280;41332;42.702;23.200;2022-11-25T10:50:43;94138.50;;;8.17;53.05
55468;BME280;41332;42.702;23.200;2022-11-25T10:53:25;94133.34;;;8.03;53.10
55468;BME280;41332;42.702;23.200;2022-11-25T10:56:09;94132.09;;;7.92;53.81
55468;BME280;41332;42.702;23.200;2022-11-25T10:58:36;94137.59;;;7.82;53.88
55468;BME280;41332;42.702;23.200;2022-11-25T11:03:40;94136.28;;;8.02;55.20
55468;BME280;41332;42.702;23.200;2022-11-25T11:06:35;94141.81;;;8.00;55.21
55468;BME280;41332;42.702;23.200;2022-11-25T11:09:02;94128.47;;;8.11;55.43
55468;BME280;41332;42.702;23.200;2022-11-25T11:11:28;94128.69;;;7.91;55.33
55468;BME280;41332;42.702;23.200;2022-11-25T11:16:40;94145.97;;;7.70;55.71
55468;BME280;41332;42.702;23.200;2022-11-25T11:19:19;94143.22;;;7.66;55.52
55468;BME280;41332;42.702;23.200;2022-11-25T11:21:45;94143.16;;;7.12;56.63
55468;BME280;41332;42.702;23.200;2022-11-25T11:24:40;94157.94;;;7.17;57.28
55468;BME280;41332;42.702;23.200;2022-11-25T11:27:22;94157.31;;;6.97;58.06
55468;BME280;41332;42.702;23.200;2022-11-25T11:29:47;94156.44;;;7.02;57.89
55468;BME280;41332;42.702;23.200;2022-11-25T11:32:24;94158.03;;;6.89;58.63
55468;BME280;41332;42.702;23.200;2022-11-25T11:35:17;94153.78;;;6.79;59.11
55468;BME280;41332;42.702;23.200;2022-11-25T11:37:49;94158.16;;;6.70;59.60
55468;BME280;41332;42.702;23.200;2022-11-25T11:43:10;94143.84;;;6.81;58.85
55468;BME280;41332;42.702;23.200;2022-11-25T11:48:41;94153.94;;;6.97;60.05
55468;BME280;41332;42.702;23.200;2022-11-25T11:53:49;94138.97;;;7.25;58.83
55468;BME280;41332;42.702;23.200;2022-11-25T11:56:32;94151.19;;;7.16;59.16
55468;BME280;41332;42.702;23.200;2022-11-25T12:04:46;94162.81;;;7.32;58.06
55468;BME280;41332;42.702;23.200;2022-11-25T12:18:27;94154.22;;;7.32;57.59
55468;BME280;41332;42.702;23.200;2022-11-25T12:21:03;94161.16;;;7.36;58.33
55468;BME280;41332;42.702;23.200;2022-11-25T12:26:38;94155.69;;;7.24;58.74
55468;BME280;41332;42.702;23.200;2022-11-25T12:30:10;94169.50;;;7.02;59.07
55468;BME280;41332;42.702;23.200;2022-11-25T12:32:52;94172.34;;;6.91;59.76
55468;BME280;41332;42.702;23.200;2022-11-25T12:37:57;94175.38;;;6.71;59.90
55468;BME280;41332;42.702;23.200;2022-11-25T12:40:40;94180.22;;;6.64;60.23
55468;BME280;41332;42.702;23.200;2022-11-25T12:43:38;94182.25;;;6.53;60.75
55468;BME280;41332;42.702;23.200;2022-11-25T12:46:20;94178.31;;;6.41;61.46
55468;BME280;41332;42.702;23.200;2022-11-25T12:48:46;94180.03;;;6.46;61.03
55468;BME280;41332;42.702;23.200;2022-11-25T13:16:28;94161.97;;;6.50;60.21
55468;BME280;41332;42.702;23.200;2022-11-25T13:18:54;94160.91;;;6.51;60.33
55468;BME280;41332;42.702;23.200;2022-11-25T13:21:20;94167.66;;;6.38;60.39
55468;BME280;41332;42.702;23.200;2022-11-25T13:26:37;94164.19;;;6.56;59.53
55468;BME280;41332;42.702;23.200;2022-11-25T13:32:00;94167.75;;;6.60;59.67
55468;BME280;41332;42.702;23.200;2022-11-25T13:34:31;94178.59;;;6.54;58.99
55468;BME280;41332;42.702;23.200;2022-11-25T13:36:58;94174.53;;;6.48;59.45
55468;BME280;41332;42.702;23.200;2022-11-25T13:39:35;94163.50;;;6.51;60.21
55468;BME280;41332;42.702;23.200;2022-11-25T13:42:43;94177.34;;;6.23;60.65
55468;BME280;41332;42.702;23.200;2022-11-25T13:47:54;94174.72;;;6.09;61.00
55468;BME280;41332;42.702;23.200;2022-11-25T13:50:27;94177.25;;;6.01;61.73
55468;BME280;41332;42.702;23.200;2022-11-25T13:52:57;94173.59;;;5.97;61.29
55468;BME280;41332;42.702;23.200;2022-11-25T13:55:32;94180.59;;;6.01;60.97
55468;BME280;41332;42.702;23.200;2022-11-25T13:58:23;94184.13;;;5.77;61.65
55468;BME280;41332;42.702;23.200;2022-11-25T14:01:20;94184.66;;;5.60;62.53
55468;BME280;41332;42.702;23.200;2022-11-25T14:03:46;94194.50;;;5.64;62.50
55468;BME280;41332;42.702;23.200;2022-11-25T14:09:12;94196.34;;;5.63;63.02
55468;BME280;41332;42.702;23.200;2022-11-25T14:12:04;94199.38;;;5.51;63.67
55468;BME280;41332;42.702;23.200;2022-11-25T14:20:47;94206.25;;;5.28;65.05
55468;BME280;41332;42.702;23.200;2022-11-25T14:23:43;94206.06;;;5.24;65.39
55468;BME280;41332;42.702;23.200;2022-11-25T14:26:17;94205.69;;;5.12;65.79
55468;BME280;41332;42.702;23.200;2022-11-25T14:28:55;94208.72;;;5.19;65.47
55468;BME280;41332;42.702;23.200;2022-11-25T14:31:32;94213.06;;;5.24;65.22
55468;BME280;41332;42.702;23.200;2022-11-25T14:34:05;94203.31;;;5.16;65.23
55468;BME280;41332;42.702;23.200;2022-11-25T14:36:41;94204.03;;;5.02;66.09
55468;BME280;41332;42.702;23.200;2022-11-25T14:39:23;94213.28;;;5.08;65.75
55468;BME280;41332;42.702;23.200;2022-11-25T14:42:05;94209.22;;;5.02;66.19
55468;BME280;41332;42.702;23.200;2022-11-25T14:44:39;94214.47;;;5.16;65.53
55468;BME280;41332;42.702;23.200;2022-11-25T14:47:09;94209.56;;;5.15;65.16
55468;BME280;41332;42.702;23.200;2022-11-25T14:49:46;94210.28;;;5.01;65.81
55468;BME280;41332;42.702;23.200;2022-11-25T14:52:17;94211.94;;;4.73;66.44
55468;BME280;41332;42.702;23.200;2022-11-25T14:54:44;94210.31;;;4.77;66.16
55468;BME280;41332;42.702;23.200;2022-11-25T14:57:10;94206.59;;;4.83;66.21
55468;BME280;41332;42.702;23.200;2022-11-25T14:59:36;94210.94;;;4.88;65.61